Time;durP1;ratioP1;P1;durP2;ratioP2;P2;SDS_P1;SDS_P2;PMS_P1;PMS_P2;Temp;Humidity;BMP_temperature;BMP_pressure;BME280_temperature;BME280_humidity;BME280_pressure;Samples;Min_cycle;Max_cycle;Signal;HPM_P1;HPM_P2
2023/04/18 00:00:11;;;;;;;15.75;9.73;;;;;;;6.54;100.00;96161.88;1033914;28;20076;-73
2023/04/18 00:00:41;;;;;;;14.20;9.52;;;;;;;6.53;100.00;96160.28;1033751;28;20037;-73
2023/04/18 00:01:13;;;;;;;16.40;9.98;;;;;;;6.54;100.00;96161.09;1025944;28;20778;-72
2023/04/18 00:01:44;;;;;;;14.02;9.68;;;;;;;6.54;100.00;96161.09;1025950;28;20133;-73
2023/04/18 00:02:16;;;;;;;17.05;10.95;;;;;;;6.51;100.00;96158.94;1028564;28;20265;-73
2023/04/18 00:02:47;;;;;;;17.42;9.82;;;;;;;6.52;100.00;96157.91;1033977;28;20503;-73
2023/04/18 00:03:19;;;;;;;15.57;10.27;;;;;;;6.48;100.00;96162.78;1026287;28;20386;-73
2023/04/18 00:03:50;;;;;;;14.35;9.10;;;;;;;6.46;100.00;96153.59;1035581;28;20053;-72
2023/04/18 00:04:20;;;;;;;15.63;9.55;;;;;;;6.45;100.00;96154.63;1022080;28;20271;-73
2023/04/18 00:04:51;;;;;;;15.25;9.77;;;;;;;6.43;100.00;96159.25;1029321;28;20096;-73
2023/04/18 00:05:21;;;;;;;16.77;10.70;;;;;;;6.37;100.00;96151.31;1033843;28;20081;-74
2023/04/18 00:05:52;;;;;;;17.30;10.55;;;;;;;6.45;100.00;96152.81;1025933;28;20053;-73
2023/04/18 00:06:23;;;;;;;20.15;10.75;;;;;;;6.43;100.00;96159.25;1025823;28;20043;-72
2023/04/18 00:06:53;;;;;;;15.23;10.32;;;;;;;6.40;100.00;96154.47;1033911;28;20645;-72
2023/04/18 00:07:24;;;;;;;16.98;11.27;;;;;;;6.36;100.00;96148.94;1029254;28;20042;-73
2023/04/18 00:07:55;;;;;;;16.23;10.32;;;;;;;6.42;100.00;96162.88;1025777;28;20115;-73
2023/04/18 00:08:27;;;;;;;19.45;10.60;;;;;;;6.37;100.00;96156.53;1034188;28;20041;-73
2023/04/18 00:08:57;;;;;;;17.52;10.68;;;;;;;6.33;100.00;96147.56;1031276;28;20256;-72
2023/04/18 00:09:28;;;;;;;15.93;9.82;;;;;;;6.34;100.00;96151.00;1037923;28;20697;-72
2023/04/18 00:09:58;;;;;;;16.67;10.00;;;;;;;6.34;100.00;96146.56;1029961;28;20137;-72
2023/04/18 00:10:29;;;;;;;17.60;10.63;;;;;;;6.30;100.00;96145.41;1025627;28;20073;-72
2023/04/18 00:10:59;;;;;;;17.55;11.02;;;;;;;6.36;100.00;96144.50;1033849;28;20041;-72
2023/04/18 00:11:30;;;;;;;20.90;10.65;;;;;;;6.34;100.00;96151.78;1038289;28;20143;-73
2023/04/18 00:12:03;;;;;;;18.55;10.40;;;;;;;6.36;100.00;96151.53;1034378;28;20121;-73
2023/04/18 00:12:39;;;;;;;18.80;10.27;;;;;;;6.36;100.00;96148.94;1041872;28;20040;-73
2023/04/18 00:13:10;;;;;;;16.13;10.70;;;;;;;6.35;100.00;96153.34;1030734;28;20269;-73
2023/04/18 00:13:41;;;;;;;19.65;11.57;;;;;;;6.34;100.00;96145.78;1023370;28;20669;-73
2023/04/18 00:14:12;;;;;;;18.40;10.68;;;;;;;6.35;100.00;96145.53;1030543;28;20360;-73
2023/04/18 00:14:43;;;;;;;17.40;10.45;;;;;;;6.36;100.00;96141.91;1034618;28;20099;-72
2023/04/18 00:15:13;;;;;;;17.25;10.63;;;;;;;6.36;100.00;96143.72;1027328;28;20500;-73
2023/04/18 00:15:45;;;;;;;18.20;11.05;;;;;;;6.36;100.00;96144.50;1037196;28;20136;-72
2023/04/18 00:16:15;;;;;;;18.33;11.75;;;;;;;6.34;100.00;96146.56;1027122;28;20068;-73
2023/04/18 00:16:46;;;;;;;20.05;10.35;;;;;;;6.33;100.00;96150.16;1031366;28;20319;-74
2023/04/18 00:17:17;;;;;;;17.52;11.27;;;;;;;6.33;100.00;96150.16;1038634;28;20536;-72
2023/04/18 00:17:48;;;;;;;18.48;10.60;;;;;;;6.33;100.00;96150.16;1031181;28;20291;-72
2023/04/18 00:18:18;;;;;;;17.92;10.77;;;;;;;6.36;100.00;96146.31;1023390;28;20313;-73
2023/04/18 00:18:49;;;;;;;18.50;11.57;;;;;;;6.37;100.00;96150.50;1031092;28;20030;-73
2023/04/18 00:19:20;;;;;;;21.63;11.70;;;;;;;6.35;100.00;96150.75;1034650;28;20030;-72
2023/04/18 00:19:51;;;;;;;17.25;11.20;;;;;;;6.38;100.00;96141.69;1039428;28;20143;-73
2023/04/18 00:20:25;;;;;;;20.33;11.45;;;;;;;6.40;100.00;96144.84;1035362;28;20865;-73
2023/04/18 00:20:55;;;;;;;19.40;11.45;;;;;;;6.41;100.00;96141.25;1025734;28;20370;-72
2023/04/18 00:21:26;;;;;;;18.85;11.05;;;;;;;6.41;100.00;96153.50;1038068;28;20264;-73
2023/04/18 00:21:58;;;;;;;18.35;11.02;;;;;;;6.41;100.00;96145.66;1035450;28;20065;-73
2023/04/18 00:22:29;;;;;;;20.33;12.07;;;;;;;6.40;100.00;96144.06;1035401;28;20038;-73
2023/04/18 00:23:00;;;;;;;22.23;11.57;;;;;;;6.32;100.00;96137.38;1033190;28;20897;-73
2023/04/18 00:23:33;;;;;;;19.33;11.10;;;;;;;6.31;100.00;96147.00;1027574;28;20440;-73
2023/04/18 00:24:04;;;;;;;19.00;11.30;;;;;;;6.29;100.00;96143.81;1035205;28;20603;-73
2023/04/18 00:24:34;;;;;;;20.83;12.23;;;;;;;6.31;100.00;96152.22;1022745;28;20297;-72
2023/04/18 00:25:05;;;;;;;22.73;11.82;;;;;;;6.31;100.00;96146.22;1039308;28;20339;-73
2023/04/18 00:25:36;;;;;;;22.50;11.98;;;;;;;6.30;100.00;96145.41;1027308;28;20047;-72
2023/04/18 00:26:06;;;;;;;19.95;11.98;;;;;;;6.29;100.00;96143.81;1031308;28;20364;-72
2023/04/18 00:26:37;;;;;;;19.92;11.80;;;;;;;6.29;100.00;96154.25;1031652;28;20121;-72
2023/04/18 00:27:07;;;;;;;19.20;11.75;;;;;;;6.25;100.00;96147.91;1026895;28;20038;-73
2023/04/18 00:27:38;;;;;;;21.60;12.13;;;;;;;6.22;100.00;96143.13;1035482;28;20105;-72
2023/04/18 00:28:09;;;;;;;17.98;11.30;;;;;;;6.27;100.00;96150.28;1035168;28;20022;-73
2023/04/18 00:28:39;;;;;;;19.38;12.13;;;;;;;6.25;100.00;96150.50;1031281;28;20137;-73
2023/04/18 00:29:10;;;;;;;19.90;11.95;;;;;;;6.23;100.00;96157.75;1029305;28;20031;-72
2023/04/18 00:29:41;;;;;;;23.77;13.27;;;;;;;6.26;100.00;96154.69;1023889;28;20607;-72
2023/04/18 00:30:12;;;;;;;21.42;12.32;;;;;;;6.26;100.00;96143.47;1035494;28;20034;-73
2023/04/18 00:30:42;;;;;;;21.33;12.18;;;;;;;6.22;100.00;96153.56;1031142;28;20262;-72
2023/04/18 00:31:13;;;;;;;21.77;11.55;;;;;;;6.18;100.00;96136.78;1035226;28;20034;-72
2023/04/18 00:31:43;;;;;;;20.50;12.60;;;;;;;6.22;100.00;96152.78;1030772;28;20078;-72
2023/04/18 00:32:14;;;;;;;24.10;13.57;;;;;;;6.24;100.00;96148.94;1035260;28;20031;-73
2023/04/18 00:32:44;;;;;;;20.77;13.07;;;;;;;6.19;100.00;96138.38;1035250;28;20634;-73
2023/04/18 00:33:15;;;;;;;23.23;12.15;;;;;;;6.26;100.00;96149.47;1027233;28;20070;-73
2023/04/18 00:33:46;;;;;;;21.95;12.60;;;;;;;6.26;100.00;96144.28;1035270;28;20080;-72
2023/04/18 00:34:16;;;;;;;22.98;12.05;;;;;;;6.25;100.00;96140.09;1031436;28;20130;-72
2023/04/18 00:34:47;;;;;;;23.88;13.00;;;;;;;6.25;100.00;96145.31;1030417;28;20539;-72
2023/04/18 00:35:18;;;;;;;20.27;12.38;;;;;;;6.17;100.00;96132.63;1026909;28;20113;-73
2023/04/18 00:35:48;;;;;;;20.13;11.85;;;;;;;6.23;100.00;96143.94;1031154;28;20050;-72
2023/04/18 00:36:19;;;;;;;21.73;13.25;;;;;;;6.22;100.00;96152.78;1039139;28;20267;-72
2023/04/18 00:36:49;;;;;;;21.60;12.95;;;;;;;6.16;100.00;96149.25;1034885;28;20447;-73
2023/04/18 00:37:20;;;;;;;22.85;13.30;;;;;;;6.21;100.00;96151.19;1035264;28;20079;-72
2023/04/18 00:37:50;;;;;;;23.13;12.57;;;;;;;6.21;100.00;96146.78;1027075;28;20026;-72
2023/04/18 00:38:21;;;;;;;21.30;13.25;;;;;;;6.23;100.00;96147.31;1029491;28;20122;-72
2023/04/18 00:38:51;;;;;;;20.02;13.18;;;;;;;6.24;100.00;96141.13;1031173;28;20038;-72
2023/04/18 00:39:22;;;;;;;24.75;13.98;;;;;;;6.19;100.00;96151.41;1035354;28;20141;-73
2023/04/18 00:39:53;;;;;;;22.40;12.55;;;;;;;6.18;100.00;96152.44;1035854;28;20084;-72
2023/04/18 00:40:23;;;;;;;22.20;13.40;;;;;;;6.20;100.00;96145.16;1031285;28;20165;-72
2023/04/18 00:40:54;;;;;;;23.15;13.48;;;;;;;6.19;100.00;96148.78;1035107;28;20125;-73
2023/04/18 00:41:26;;;;;;;24.70;12.43;;;;;;;6.17;100.00;96148.25;1035402;28;20841;-72
2023/04/18 00:41:57;;;;;;;22.52;13.45;;;;;;;6.16;100.00;96146.63;1035041;28;20018;-72
2023/04/18 00:42:28;;;;;;;22.30;12.55;;;;;;;6.13;100.00;96145.25;1027226;28;20348;-73
2023/04/18 00:42:59;;;;;;;22.75;13.15;;;;;;;6.14;100.00;96143.47;1035222;28;20026;-73
2023/04/18 00:43:29;;;;;;;22.40;13.50;;;;;;;6.14;100.00;96136.44;1024505;28;20027;-72
2023/04/18 00:44:00;;;;;;;24.92;13.55;;;;;;;6.17;100.00;96139.59;1031198;28;20054;-73
2023/04/18 00:44:30;;;;;;;24.20;13.48;;;;;;;6.16;100.00;96145.84;1038858;28;20086;-72
2023/04/18 00:45:01;;;;;;;20.73;13.10;;;;;;;6.14;100.00;96136.44;1030870;28;20022;-72
2023/04/18 00:45:31;;;;;;;22.77;12.95;;;;;;;6.14;100.00;96136.44;1031111;28;20058;-73
2023/04/18 00:46:02;;;;;;;21.60;13.23;;;;;;;6.14;100.00;96135.66;1031300;28;20026;-73
2023/04/18 00:46:32;;;;;;;22.55;12.73;;;;;;;6.12;100.00;96138.47;1039496;28;20703;-74
2023/04/18 00:47:03;;;;;;;22.88;12.95;;;;;;;6.14;100.00;96131.25;1038800;28;20715;-72
2023/04/18 00:47:33;;;;;;;23.98;13.93;;;;;;;6.12;100.00;96137.69;1039133;28;20034;-72
2023/04/18 00:48:04;;;;;;;24.30;13.75;;;;;;;6.14;100.00;96136.44;1031314;28;20030;-72
2023/04/18 00:48:34;;;;;;;21.27;12.75;;;;;;;6.12;100.00;96133.25;1035108;28;20057;-73
2023/04/18 00:49:05;;;;;;;23.63;13.40;;;;;;;6.12;100.00;96137.69;1035420;28;20165;-73
2023/04/18 00:49:36;;;;;;;21.75;13.75;;;;;;;6.09;100.00;96135.53;1027207;28;20496;-73
2023/04/18 00:50:07;;;;;;;20.85;12.95;;;;;;;6.07;100.00;96134.94;1026794;28;20137;-72
2023/04/18 00:50:39;;;;;;;25.23;13.98;;;;;;;6.09;100.00;96143.34;1035447;28;20061;-74
2023/04/18 00:51:09;;;;;;;23.02;14.10;;;;;;;6.08;100.00;96141.75;1035191;28;20264;-73
2023/04/18 00:51:40;;;;;;;23.13;13.73;;;;;;;6.06;100.00;96143.78;1027205;28;20748;-72
2023/04/18 00:52:11;;;;;;;24.75;13.50;;;;;;;6.06;100.00;96139.38;1023156;28;20059;-73
2023/04/18 00:52:41;;;;;;;23.08;13.20;;;;;;;6.05;100.00;96143.00;1035371;28;20419;-72
2023/04/18 00:53:12;;;;;;;23.60;14.18;;;;;;;6.04;100.00;96146.63;1035312;28;20707;-72
2023/04/18 00:53:42;;;;;;;20.98;13.27;;;;;;;6.06;100.00;96139.38;1036559;28;20041;-73
2023/04/18 00:54:13;;;;;;;23.58;14.73;;;;;;;6.04;100.00;96140.63;1035140;28;20050;-73
2023/04/18 00:54:43;;;;;;;27.50;14.10;;;;;;;6.05;100.00;96139.59;1030961;28;20026;-71
2023/04/18 00:55:14;;;;;;;23.50;13.93;;;;;;;6.04;100.00;96141.41;1042108;28;20594;-71
2023/04/18 00:55:44;;;;;;;21.77;13.73;;;;;;;6.05;100.00;96144.81;1031301;28;20072;-73
2023/04/18 00:56:15;;;;;;;24.15;14.43;;;;;;;6.04;100.00;96141.41;1023195;29;20022;-72
2023/04/18 00:56:45;;;;;;;22.60;12.52;;;;;;;6.05;100.00;96142.22;1027252;28;20631;-71
2023/04/18 00:57:16;;;;;;;24.27;13.88;;;;;;;6.04;100.00;96145.84;1026832;28;20500;-72
2023/04/18 00:57:46;;;;;;;25.23;14.05;;;;;;;6.05;100.00;96148.22;1027323;28;20070;-73
2023/04/18 00:58:17;;;;;;;23.20;14.38;;;;;;;6.05;100.00;96134.41;1035073;28;20128;-72
2023/04/18 00:58:47;;;;;;;22.90;14.75;;;;;;;6.06;100.00;96143.78;1035867;28;20033;-70
2023/04/18 00:59:18;;;;;;;23.35;13.82;;;;;;;6.04;100.00;96140.63;1030275;28;20484;-73
2023/04/18 00:59:49;;;;;;;24.45;13.90;;;;;;;6.06;100.00;96139.38;1031214;28;20443;-74
2023/04/18 01:00:19;;;;;;;28.95;15.00;;;;;;;6.07;100.00;96137.56;1036349;28;20026;-72
2023/04/18 01:00:50;;;;;;;25.83;14.48;;;;;;;6.04;100.00;96141.41;1023144;28;20125;-70
2023/04/18 01:01:22;;;;;;;24.92;14.07;;;;;;;6.07;100.00;96145.38;1039255;28;20018;-72
2023/04/18 01:01:52;;;;;;;23.55;14.27;;;;;;;6.06;100.00;96135.97;1031395;28;20716;-72
2023/04/18 01:02:24;;;;;;;29.00;14.70;;;;;;;6.04;100.00;96140.63;1034846;28;20308;-73
2023/04/18 01:02:55;;;;;;;24.08;13.60;;;;;;;6.04;100.00;96143.22;1035533;28;20025;-74
2023/04/18 01:03:25;;;;;;;25.10;14.68;;;;;;;6.07;100.00;96135.75;1035141;28;20281;-72
2023/04/18 01:03:56;;;;;;;23.67;14.50;;;;;;;6.06;100.00;96141.19;1026944;28;20117;-73
2023/04/18 01:04:27;;;;;;;25.30;14.00;;;;;;;6.04;100.00;96145.84;1031103;28;20066;-72
2023/04/18 01:04:58;;;;;;;22.48;13.70;;;;;;;6.04;100.00;96136.22;1030923;28;20457;-73
2023/04/18 01:05:28;;;;;;;22.98;14.15;;;;;;;6.02;100.00;96143.44;1029899;28;20033;-72
2023/04/18 01:05:59;;;;;;;26.83;15.65;;;;;;;6.04;100.00;96140.63;1027237;28;20356;-73
2023/04/18 01:06:30;;;;;;;26.42;15.45;;;;;;;6.06;100.00;96139.38;1030931;28;20022;-73
2023/04/18 01:07:01;;;;;;;23.52;14.15;;;;;;;6.04;100.00;96148.44;1035449;28;20344;-73
2023/04/18 01:07:32;;;;;;;25.92;14.52;;;;;;;6.03;100.00;96139.03;1035222;28;20079;-72
2023/04/18 01:08:02;;;;;;;27.00;14.55;;;;;;;6.02;100.00;96143.44;1031061;28;20026;-73
2023/04/18 01:08:33;;;;;;;25.63;14.70;;;;;;;5.99;100.00;96138.69;1035400;28;20315;-72
2023/04/18 01:09:04;;;;;;;24.33;14.43;;;;;;;6.02;100.00;96133.03;1031913;28;20522;-72
2023/04/18 01:09:35;;;;;;;24.75;14.50;;;;;;;6.04;100.00;96135.41;1027007;28;20432;-73
2023/04/18 01:10:06;;;;;;;23.88;14.38;;;;;;;6.02;100.00;96133.03;1027299;28;20266;-73
2023/04/18 01:10:36;;;;;;;25.60;15.50;;;;;;;6.00;100.00;96134.25;1030806;28;20522;-72
2023/04/18 01:11:07;;;;;;;27.63;15.60;;;;;;;6.03;100.00;96133.81;1027334;28;20285;-74
2023/04/18 01:11:37;;;;;;;24.58;15.23;;;;;;;6.03;100.00;96139.03;1031082;28;20066;-72
2023/04/18 01:12:08;;;;;;;26.00;14.82;;;;;;;6.03;100.00;96134.59;1031238;28;20034;-72
2023/04/18 01:12:39;;;;;;;28.80;15.43;;;;;;;5.99;100.00;96138.69;1039350;28;20068;-72
2023/04/18 01:13:13;;;;;;;27.67;16.08;;;;;;;6.00;100.00;96140.28;1031052;28;20030;-72
2023/04/18 01:14:00;;;;;;;26.98;14.15;;;;;;;6.01;100.00;96141.88;1035130;28;20738;-73
2023/04/18 01:14:31;;;;;;;26.30;15.13;;;;;;;6.01;100.00;96136.66;1026343;28;20927;-72
2023/04/18 01:15:03;;;;;;;26.50;14.48;;;;;;;6.02;100.00;96138.22;1034258;28;20308;-74
2023/04/18 01:15:33;;;;;;;27.55;15.68;;;;;;;6.03;100.00;96133.81;1035520;28;20432;-73
2023/04/18 01:16:04;;;;;;;29.52;15.82;;;;;;;6.05;100.00;96134.41;1031103;28;20706;-72
2023/04/18 01:16:35;;;;;;;25.42;14.68;;;;;;;6.05;100.00;96131.78;1035508;28;20030;-72
2023/04/18 01:17:09;;;;;;;27.70;16.08;;;;;;;6.04;100.00;96133.59;1031015;28;20041;-72
2023/04/18 01:17:40;;;;;;;26.20;15.63;;;;;;;6.04;100.00;96136.22;1030950;28;20304;-72
2023/04/18 01:18:11;;;;;;;26.45;16.45;;;;;;;6.04;100.00;96138.03;1027345;28;20364;-72
2023/04/18 01:18:42;;;;;;;28.90;17.00;;;;;;;6.05;100.00;96137.00;1027089;28;20026;-72
2023/04/18 01:19:13;;;;;;;28.52;16.35;;;;;;;6.02;100.00;96134.84;1037787;28;20355;-73
2023/04/18 01:19:45;;;;;;;27.23;16.60;;;;;;;6.02;100.00;96132.22;1035208;28;20030;-72
2023/04/18 01:20:16;;;;;;;27.13;16.88;;;;;;;6.05;100.00;96139.59;1031117;28;20034;-71
2023/04/18 01:20:50;;;;;;;24.05;15.18;;;;;;;6.00;100.00;96136.84;1024570;28;20267;-71
2023/04/18 01:21:21;;;;;;;28.88;16.42;;;;;;;5.99;100.00;96132.69;1030787;28;20054;-72
2023/04/18 01:21:52;;;;;;;27.52;15.27;;;;;;;5.97;100.00;96132.09;1023198;28;20277;-73
2023/04/18 01:22:23;;;;;;;25.60;15.77;;;;;;;5.95;100.00;96126.34;1031367;28;20036;-72
2023/04/18 01:22:54;;;;;;;27.98;16.73;;;;;;;5.95;100.00;96127.13;1030110;28;20280;-73
2023/04/18 01:23:25;;;;;;;29.65;16.98;;;;;;;5.97;100.00;96126.88;1031285;28;20031;-71
2023/04/18 01:24:00;;;;;;;27.35;15.98;;;;;;;5.96;100.00;96131.31;1027137;28;20834;-71
2023/04/18 01:24:30;;;;;;;32.28;15.73;;;;;;;5.93;100.00;96129.16;1034326;28;20033;-71
2023/04/18 01:25:05;;;;;;;28.35;16.30;;;;;;;5.91;100.00;96131.97;1029782;28;20266;-71
2023/04/18 01:25:36;;;;;;;26.55;15.70;;;;;;;5.87;100.00;96130.81;1030418;28;20034;-72
2023/04/18 01:26:06;;;;;;;24.98;15.45;;;;;;;5.86;100.00;96134.41;1038831;28;20845;-71
2023/04/18 01:26:37;;;;;;;27.20;15.50;;;;;;;5.87;100.00;96130.03;1021786;29;20485;-71
2023/04/18 01:27:10;;;;;;;30.48;17.60;;;;;;;5.82;100.00;96122.88;1034383;28;20025;-72
2023/04/18 01:27:41;;;;;;;29.50;16.98;;;;;;;5.89;100.00;96130.59;1030712;28;20035;-72
2023/04/18 01:28:12;;;;;;;26.20;15.57;;;;;;;5.89;100.00;96133.19;1030416;28;21103;-72
2023/04/18 01:28:43;;;;;;;29.42;17.17;;;;;;;5.88;100.00;96142.03;1034497;28;20034;-73
2023/04/18 01:29:13;;;;;;;27.38;16.83;;;;;;;5.81;100.00;96116.06;1030810;28;20455;-72
2023/04/18 01:29:44;;;;;;;29.30;16.13;;;;;;;5.86;100.00;96133.63;1019583;28;20064;-72
2023/04/18 01:30:14;;;;;;;26.40;15.85;;;;;;;5.87;100.00;96125.59;1026661;28;20157;-72
2023/04/18 01:30:45;;;;;;;31.88;16.08;;;;;;;5.88;100.00;96135.00;1030452;28;20042;-72
2023/04/18 01:31:15;;;;;;;25.23;15.40;;;;;;;5.89;100.00;96133.97;1030421;28;20030;-71
2023/04/18 01:31:46;;;;;;;28.58;16.23;;;;;;;5.87;100.00;96123.00;1034621;28;20534;-72
2023/04/18 01:32:19;;;;;;;27.63;15.65;;;;;;;5.91;100.00;96131.97;1026436;28;20031;-72
2023/04/18 01:32:49;;;;;;;30.33;17.20;;;;;;;5.87;100.00;96128.22;1034482;28;20029;-72
2023/04/18 01:33:20;;;;;;;29.30;17.27;;;;;;;5.85;100.00;96121.63;1033203;28;20368;-72
2023/04/18 01:33:51;;;;;;;29.75;15.88;;;;;;;5.83;100.00;96116.63;1034412;28;20534;-73
2023/04/18 01:34:21;;;;;;;29.38;16.23;;;;;;;5.84;100.00;96123.44;1034756;28;20349;-72
2023/04/18 01:34:52;;;;;;;32.65;16.98;;;;;;;5.82;100.00;96124.69;1023100;28;20437;-71
2023/04/18 01:35:22;;;;;;;26.23;15.98;;;;;;;5.78;100.00;96120.94;1026407;28;20326;-72
2023/04/18 01:35:53;;;;;;;27.55;16.10;;;;;;;5.73;100.00;96102.56;1022444;29;20039;-72
2023/04/18 01:36:23;;;;;;;29.13;16.70;;;;;;;5.83;100.00;96119.22;1034162;28;20026;-70
2023/04/18 01:36:54;;;;;;;30.30;16.23;;;;;;;5.79;100.00;96120.69;1030462;28;20755;-71
2023/04/18 01:37:24;;;;;;;26.92;15.85;;;;;;;5.81;100.00;96123.09;1026581;28;20066;-72
2023/04/18 01:37:56;;;;;;;29.60;16.70;;;;;;;5.77;100.00;96120.16;1030434;28;20772;-71
2023/04/18 01:38:26;;;;;;;26.63;17.00;;;;;;;5.76;100.00;96122.97;1033373;28;20022;-72
2023/04/18 01:38:57;;;;;;;30.73;17.73;;;;;;;5.76;100.00;96123.75;1026467;28;20360;-72
2023/04/18 01:39:28;;;;;;;26.80;16.17;;;;;;;5.77;100.00;96117.53;1032327;28;20038;-71
2023/04/18 01:39:58;;;;;;;28.85;16.58;;;;;;;5.79;100.00;96123.31;1028744;28;20791;-72
2023/04/18 01:40:29;;;;;;;26.65;15.75;;;;;;;5.77;100.00;96116.72;1030465;28;20631;-72
2023/04/18 01:41:01;;;;;;;29.70;16.98;;;;;;;5.76;100.00;96117.75;1030408;28;20061;-71
2023/04/18 01:41:31;;;;;;;28.25;16.38;;;;;;;5.76;100.00;96126.34;1022815;28;20074;-72
2023/04/18 01:42:02;;;;;;;28.80;16.38;;;;;;;5.74;100.00;96114.59;1034305;28;20323;-71
2023/04/18 01:42:32;;;;;;;30.15;16.73;;;;;;;5.78;100.00;96121.72;1026725;28;20081;-71
2023/04/18 01:43:03;;;;;;;29.75;17.08;;;;;;;5.79;100.00;96125.91;1034542;28;20065;-72
2023/04/18 01:43:33;;;;;;;28.40;16.08;;;;;;;5.78;100.00;96111.31;1030406;28;20482;-72
2023/04/18 01:44:04;;;;;;;30.83;17.27;;;;;;;5.82;100.00;96119.47;1034476;28;20518;-71
2023/04/18 01:44:34;;;;;;;25.13;15.80;;;;;;;5.82;100.00;96119.47;1025900;28;20134;-72
2023/04/18 01:45:06;;;;;;;29.08;16.45;;;;;;;5.77;100.00;96114.94;1027662;28;20035;-71
2023/04/18 01:45:37;;;;;;;28.98;16.00;;;;;;;5.79;100.00;96117.31;1038665;28;20029;-71
2023/04/18 01:46:07;;;;;;;27.70;16.13;;;;;;;5.76;100.00;96113.34;1034147;28;20339;-71
2023/04/18 01:46:39;;;;;;;26.20;14.95;;;;;;;5.74;100.00;96119.81;1038623;28;20666;-72
2023/04/18 01:47:10;;;;;;;33.38;16.63;;;;;;;5.72;100.00;96114.81;1038430;28;20530;-72
2023/04/18 01:47:40;;;;;;;24.92;14.77;;;;;;;5.70;100.00;96119.47;1034453;28;20316;-71
2023/04/18 01:48:11;;;;;;;29.65;16.55;;;;;;;5.65;100.00;96112.28;1038564;28;20079;-71
2023/04/18 01:48:41;;;;;;;30.20;17.10;;;;;;;5.67;100.00;96118.09;1034283;28;20128;-71
2023/04/18 01:49:12;;;;;;;27.35;15.77;;;;;;;5.68;100.00;96114.44;1026281;28;20102;-72
2023/04/18 01:49:46;;;;;;;25.40;15.65;;;;;;;5.70;100.00;96119.47;1034384;28;20507;-72
2023/04/18 01:50:17;;;;;;;33.53;17.75;;;;;;;5.72;100.00;96114.81;1030080;28;20038;-71
2023/04/18 01:50:47;;;;;;;28.50;16.65;;;;;;;5.70;100.00;96113.44;1034678;28;20844;-72
2023/04/18 01:51:18;;;;;;;30.90;16.58;;;;;;;5.73;100.00;96113.78;1034341;28;20041;-72
2023/04/18 01:51:48;;;;;;;28.80;16.48;;;;;;;5.72;100.00;96116.63;1030164;28;20031;-73
2023/04/18 01:52:19;;;;;;;31.75;17.00;;;;;;;5.74;100.00;96120.59;1038498;28;20036;-71
2023/04/18 01:52:49;;;;;;;30.13;16.42;;;;;;;5.74;100.00;96114.59;1030359;28;20121;-73
2023/04/18 01:53:20;;;;;;;31.10;16.92;;;;;;;5.74;100.00;96115.38;1022383;28;20453;-71
2023/04/18 01:53:51;;;;;;;30.33;17.13;;;;;;;5.75;100.00;96113.56;1042219;28;20450;-72
2023/04/18 01:54:21;;;;;;;29.17;17.02;;;;;;;5.75;100.00;96119.56;1038223;28;20129;-72
2023/04/18 01:54:52;;;;;;;29.00;16.30;;;;;;;5.71;100.00;96109.81;1034087;28;20033;-72
2023/04/18 01:55:22;;;;;;;32.53;18.60;;;;;;;5.76;100.00;96115.94;1030201;28;20030;-72
2023/04/18 01:55:53;;;;;;;26.98;16.45;;;;;;;5.77;100.00;96114.94;1034339;28;20073;-72
2023/04/18 01:56:23;;;;;;;30.80;17.13;;;;;;;5.81;100.00;96116.06;1026297;28;20097;-72
2023/04/18 01:56:54;;;;;;;31.85;16.95;;;;;;;5.78;100.00;96108.72;1031255;28;20145;-72
2023/04/18 01:57:24;;;;;;;28.13;16.40;;;;;;;5.77;100.00;96107.13;1030211;28;20030;-74
2023/04/18 01:57:55;;;;;;;29.13;16.65;;;;;;;5.73;100.00;96103.38;1034571;28;20053;-72
2023/04/18 01:58:25;;;;;;;35.17;17.25;;;;;;;5.74;100.00;96110.19;1042448;28;20029;-72
2023/04/18 01:58:56;;;;;;;30.63;17.45;;;;;;;5.74;100.00;96109.38;1037018;28;20021;-73
2023/04/18 01:59:26;;;;;;;29.08;16.67;;;;;;;5.74;100.00;96115.38;1033519;28;20121;-72
2023/04/18 01:59:57;;;;;;;29.80;17.42;;;;;;;5.75;100.00;96108.38;1020778;28;20063;-72
2023/04/18 02:00:27;;;;;;;31.27;16.85;;;;;;;5.73;100.00;96113.78;1024443;28;20026;-73
2023/04/18 02:00:58;;;;;;;26.25;15.52;;;;;;;5.70;100.00;96105.63;1038536;28;20510;-72
2023/04/18 02:01:28;;;;;;;27.65;16.60;;;;;;;5.71;100.00;96113.22;1030532;28;20053;-72
2023/04/18 02:01:59;;;;;;;26.67;16.42;;;;;;;5.70;100.00;96108.22;1034634;28;20037;-72
2023/04/18 02:02:29;;;;;;;26.75;16.50;;;;;;;5.71;100.00;96109.81;1034668;28;20030;-72
2023/04/18 02:03:00;;;;;;;28.83;17.17;;;;;;;5.72;100.00;96117.41;1030488;28;20034;-73
2023/04/18 02:03:30;;;;;;;29.02;16.15;;;;;;;5.72;100.00;96107.00;1038555;28;20107;-72
2023/04/18 02:04:01;;;;;;;28.77;16.75;;;;;;;5.68;100.00;96106.66;1030312;28;20541;-72
2023/04/18 02:04:31;;;;;;;29.23;16.83;;;;;;;5.71;100.00;96112.44;1026170;28;20074;-72
2023/04/18 02:05:02;;;;;;;29.08;16.20;;;;;;;5.71;100.00;96109.81;1030097;28;20050;-73
2023/04/18 02:05:32;;;;;;;29.45;16.02;;;;;;;5.72;100.00;96112.19;1030315;28;20117;-73
2023/04/18 02:06:03;;;;;;;26.33;16.73;;;;;;;5.66;100.00;96115.69;1026149;28;20366;-71
2023/04/18 02:06:34;;;;;;;27.90;16.85;;;;;;;5.65;100.00;96116.72;1030320;28;20034;-72
2023/04/18 02:07:04;;;;;;;30.63;16.75;;;;;;;5.64;100.00;96107.31;1034893;28;20061;-72
2023/04/18 02:07:35;;;;;;;26.13;14.95;;;;;;;5.63;100.00;96108.31;1026423;28;20077;-73
2023/04/18 02:08:06;;;;;;;28.70;16.50;;;;;;;5.61;100.00;96111.16;1036388;28;20033;-72
2023/04/18 02:08:36;;;;;;;31.52;17.13;;;;;;;5.63;100.00;96108.31;1034574;28;20038;-71
2023/04/18 02:09:07;;;;;;;28.58;15.35;;;;;;;5.64;100.00;96112.53;1029470;28;20112;-73
2023/04/18 02:09:37;;;;;;;31.98;16.80;;;;;;;5.62;100.00;96111.94;1026629;28;20102;-71
2023/04/18 02:10:09;;;;;;;27.33;16.10;;;;;;;5.61;100.00;96110.38;1034410;28;20117;-72
2023/04/18 02:10:40;;;;;;;27.83;17.13;;;;;;;5.61;100.00;96110.38;1028345;28;20452;-72
2023/04/18 02:11:10;;;;;;;29.75;17.10;;;;;;;5.61;100.00;96115.56;1042592;28;20271;-72
2023/04/18 02:11:41;;;;;;;27.52;16.20;;;;;;;5.61;100.00;96115.56;1030494;28;20106;-73
2023/04/18 02:12:11;;;;;;;29.45;16.40;;;;;;;5.58;100.00;96110.81;1034254;28;20069;-72
2023/04/18 02:12:42;;;;;;;28.55;16.38;;;;;;;5.60;100.00;96119.16;1034576;28;20305;-73
2023/04/18 02:13:14;;;;;;;28.25;16.17;;;;;;;5.60;100.00;96113.97;1026212;28;20145;-72
2023/04/18 02:13:44;;;;;;;28.17;16.08;;;;;;;5.58;100.00;96116.00;1030351;28;20042;-72
2023/04/18 02:14:15;;;;;;;32.03;17.65;;;;;;;5.57;100.00;96110.00;1030672;28;20281;-73
2023/04/18 02:14:50;;;;;;;27.77;16.67;;;;;;;5.60;100.00;96119.16;1034214;28;20045;-72
2023/04/18 02:15:22;;;;;;;32.55;17.45;;;;;;;5.62;100.00;96114.53;1038950;28;20435;-72
2023/04/18 02:15:53;;;;;;;31.83;18.63;;;;;;;5.63;100.00;96113.53;1026755;28;20747;-72
2023/04/18 02:16:23;;;;;;;29.83;16.50;;;;;;;5.60;100.00;96112.19;1034661;28;20348;-72
2023/04/18 02:16:54;;;;;;;33.88;17.45;;;;;;;5.64;100.00;96115.91;1035212;28;20033;-72
2023/04/18 02:17:24;;;;;;;31.52;16.80;;;;;;;5.63;100.00;96111.75;1034186;28;20061;-72
2023/04/18 02:17:55;;;;;;;27.75;15.57;;;;;;;5.61;100.00;96115.56;1038843;28;20053;-72
2023/04/18 02:18:25;;;;;;;30.70;17.52;;;;;;;5.62;100.00;96117.16;1030457;28;20034;-73
2023/04/18 02:18:56;;;;;;;28.73;16.60;;;;;;;5.63;100.00;96114.34;1030467;28;20050;-72
2023/04/18 02:19:28;;;;;;;28.30;16.75;;;;;;;5.66;100.00;96115.69;1029940;28;20069;-73
2023/04/18 02:19:58;;;;;;;31.05;17.33;;;;;;;5.67;100.00;96117.28;1030315;28;20272;-72
2023/04/18 02:20:32;;;;;;;30.35;18.02;;;;;;;5.62;100.00;96114.53;1022277;28;20307;-72
2023/04/18 02:21:03;;;;;;;32.47;17.60;;;;;;;5.62;100.00;96127.56;1030392;28;20611;-73
2023/04/18 02:21:33;;;;;;;32.40;17.45;;;;;;;5.62;100.00;96122.34;1025935;28;20274;-74
2023/04/18 02:22:04;;;;;;;31.30;16.55;;;;;;;5.57;100.00;96112.63;1031164;28;20054;-72